Time;durP1;ratioP1;P1;durP2;ratioP2;P2;SDS_P1;SDS_P2;PMS_P1;PMS_P2;Temp;Humidity;BMP_temperature;BMP_pressure;BME280_temperature;BME280_humidity;BME280_pressure;Samples;Min_cycle;Max_cycle;Signal;HPM_P1;HPM_P2
2022/02/17 00:00:29;;;;;;;;;;;;;;;8.53;58.22;100138.11;117360;1185;23435;-56
2022/02/17 00:02:57;;;;;;;;;;;;;;;8.52;58.26;100132.00;117471;1184;21905;-60
2022/02/17 00:05:25;;;;;;;;;;;;;;;8.50;58.14;100133.76;117409;1185;23436;-60
2022/02/17 00:07:54;;;;;;;;;;;;;;;8.49;58.13;100126.93;117382;1185;22842;-58
2022/02/17 00:10:23;;;;;;;;;;;;;;;8.46;58.46;100126.42;117443;1185;21810;-60
2022/02/17 00:12:51;;;;;;;;;;;;;;;8.47;58.30;100121.34;117278;1183;22304;-60
2022/02/17 00:15:19;;;;;;;;;;;;;;;8.46;58.22;100119.23;117371;1185;22930;-60
2022/02/17 00:17:47;;;;;;;;;;;;;;;8.46;58.28;100121.52;117326;1185;21893;-58
2022/02/17 00:20:16;;;;;;;;;;;;;;;8.45;58.19;100114.88;117381;1185;21870;-57
2022/02/17 00:22:44;;;;;;;;;;;;;;;8.45;58.24;100108.76;117369;1185;21832;-60
2022/02/17 00:25:12;;;;;;;;;;;;;;;8.45;58.36;100111.20;117159;1186;21835;-61
2022/02/17 00:27:41;;;;;;;;;;;;;;;8.44;58.17;100103.86;117416;1185;22063;-57
2022/02/17 00:30:10;;;;;;;;;;;;;;;8.43;58.41;100101.95;117421;1185;21865;-60
2022/02/17 00:32:38;;;;;;;;;;;;;;;8.43;58.36;100100.55;117434;1185;21838;-58
2022/02/17 00:35:07;;;;;;;;;;;;;;;8.43;58.35;100093.56;117352;1186;23440;-60
2022/02/17 00:37:35;;;;;;;;;;;;;;;8.43;58.34;100097.05;117359;1182;21839;-58
2022/02/17 00:40:03;;;;;;;;;;;;;;;8.44;58.40;100084.98;117418;1183;21837;-60
2022/02/17 00:42:32;;;;;;;;;;;;;;;8.42;58.48;100081.69;117450;1182;24206;-58
2022/02/17 00:45:00;;;;;;;;;;;;;;;8.41;58.52;100082.04;117461;1185;23448;-60
2022/02/17 00:47:28;;;;;;;;;;;;;;;8.41;58.48;100077.66;117427;1185;21842;-58
2022/02/17 00:49:57;;;;;;;;;;;;;;;8.40;58.71;100074.53;117379;1183;23458;-58
2022/02/17 00:52:26;;;;;;;;;;;;;;;8.39;58.65;100072.80;117384;1185;21838;-60
2022/02/17 00:54:54;;;;;;;;;;;;;;;8.39;58.61;100070.17;117368;1185;22720;-60
2022/02/17 00:57:25;;;;;;;;;;;;;;;8.40;58.62;100061.77;117363;1186;23416;-58
2022/02/17 00:59:52;;;;;;;;;;;;;;;8.40;58.57;100055.30;117338;1186;23531;-60
2022/02/17 01:02:21;;;;;;;;;;;;;;;8.40;58.66;100054.95;117411;1185;21825;-58
2022/02/17 01:04:49;;;;;;;;;;;;;;;8.39;58.60;100041.66;117362;1186;21839;-58
2022/02/17 01:07:17;;;;;;;;;;;;;;;8.38;58.65;100043.95;117406;1185;22926;-60
2022/02/17 01:09:45;;;;;;;;;;;;;;;8.37;58.87;100048.16;117299;1185;21839;-60
2022/02/17 01:12:14;;;;;;;;;;;;;;;8.33;58.70;100040.32;117369;1185;23516;-59
2022/02/17 01:14:42;;;;;;;;;;;;;;;8.32;58.64;100045.39;117432;1186;21829;-60
2022/02/17 01:17:10;;;;;;;;;;;;;;;8.30;58.57;100038.95;117439;1185;21933;-58
2022/02/17 01:19:38;;;;;;;;;;;;;;;8.29;58.74;100040.89;117412;1185;22151;-60
2022/02/17 01:22:06;;;;;;;;;;;;;;;8.26;58.91;100037.42;117356;1185;21842;-58
2022/02/17 01:24:36;;;;;;;;;;;;;;;8.23;58.98;100041.81;117370;1185;21839;-58
2022/02/17 01:27:04;;;;;;;;;;;;;;;8.21;58.96;100039.90;117321;1185;21836;-60
2022/02/17 01:29:33;;;;;;;;;;;;;;;8.20;58.91;100036.75;117407;1185;22093;-60
2022/02/17 01:32:01;;;;;;;;;;;;;;;8.17;59.08;100030.65;117374;1185;21839;-60
2022/02/17 01:34:30;;;;;;;;;;;;;;;8.18;58.68;100028.73;117382;1185;23532;-58
2022/02/17 01:36:58;;;;;;;;;;;;;;;8.19;58.94;100022.08;117392;1185;21849;-57
2022/02/17 01:39:26;;;;;;;;;;;;;;;8.19;58.84;100014.91;117346;1185;21829;-57
2022/02/17 01:41:55;;;;;;;;;;;;;;;8.19;59.01;100010.20;117270;1186;21878;-58
2022/02/17 01:44:23;;;;;;;;;;;;;;;8.18;58.83;100010.20;117376;1184;21829;-59
2022/02/17 01:46:51;;;;;;;;;;;;;;;8.19;58.81;100006.53;117432;1184;21939;-58
2022/02/17 01:49:19;;;;;;;;;;;;;;;8.19;58.97;100008.27;117458;1186;23425;-60
2022/02/17 01:51:47;;;;;;;;;;;;;;;8.18;58.84;100008.62;117342;1185;22656;-58
2022/02/17 01:54:17;;;;;;;;;;;;;;;8.17;59.07;100007.23;117340;1185;21839;-58
2022/02/17 01:56:46;;;;;;;;;;;;;;;8.16;58.96;100002.55;117336;1186;21879;-60
2022/02/17 01:59:14;;;;;;;;;;;;;;;8.15;58.99;100001.84;117423;1186;23436;-61
2022/02/17 02:01:42;;;;;;;;;;;;;;;8.14;58.95;100002.39;117503;1185;22028;-58
2022/02/17 02:04:10;;;;;;;;;;;;;;;8.13;58.82;100005.02;117442;1186;21891;-59
2022/02/17 02:06:39;;;;;;;;;;;;;;;8.13;58.82;100002.40;117384;1186;21842;-59
2022/02/17 02:09:07;;;;;;;;;;;;;;;8.12;58.89;100007.98;117370;1185;23258;-57
2022/02/17 02:11:35;;;;;;;;;;;;;;;8.12;58.78;100002.58;117381;1185;21837;-56
2022/02/17 02:14:03;;;;;;;;;;;;;;;8.12;58.82;100007.29;117342;1182;21838;-60
2022/02/17 02:16:31;;;;;;;;;;;;;;;8.13;59.03;100005.54;117369;1185;23416;-58
2022/02/17 02:18:59;;;;;;;;;;;;;;;8.12;59.04;100001.17;117370;1185;22776;-60
2022/02/17 02:21:27;;;;;;;;;;;;;;;8.13;58.84;100000.48;117367;1183;23438;-57
2022/02/17 02:23:55;;;;;;;;;;;;;;;8.13;59.07;100002.39;117381;1185;22626;-59
2022/02/17 02:26:23;;;;;;;;;;;;;;;8.14;58.88;100003.61;117373;1185;23518;-59
2022/02/17 02:28:52;;;;;;;;;;;;;;;8.14;58.81;100004.13;117296;1185;23438;-59
2022/02/17 02:31:20;;;;;;;;;;;;;;;8.14;58.81;100000.98;117339;1185;21838;-59
2022/02/17 02:33:49;;;;;;;;;;;;;;;8.15;58.69;100007.09;117400;1185;22909;-59
2022/02/17 02:36:17;;;;;;;;;;;;;;;8.14;58.88;100011.48;117346;1186;21829;-57
2022/02/17 02:38:57;;;;;;;;;;;;;;;8.14;58.80;100007.27;117324;1185;23487;-57
2022/02/17 02:41:25;;;;;;;;;;;;;;;8.12;58.76;100006.77;117501;1186;21838;-59
2022/02/17 02:43:56;;;;;;;;;;;;;;;8.13;58.83;100004.14;117422;1185;21869;-57
2022/02/17 02:46:24;;;;;;;;;;;;;;;8.11;58.81;100001.71;117432;1186;23629;-59
2022/02/17 02:48:53;;;;;;;;;;;;;;;8.11;58.70;100003.27;117347;1185;21842;-58
2022/02/17 02:51:21;;;;;;;;;;;;;;;8.08;58.67;100007.66;117349;1185;21829;-58
2022/02/17 02:53:48;;;;;;;;;;;;;;;8.05;58.80;100003.85;117394;1185;22411;-58
2022/02/17 02:56:16;;;;;;;;;;;;;;;8.04;58.82;99999.66;117357;1185;22915;-58
2022/02/17 02:58:45;;;;;;;;;;;;;;;8.03;58.71;100001.94;117401;1185;23478;-57
2022/02/17 03:01:13;;;;;;;;;;;;;;;8.03;58.65;99997.05;117414;1182;23538;-57
2022/02/17 03:03:41;;;;;;;;;;;;;;;8.03;58.77;99996.86;117361;1186;26625;-57
2022/02/17 03:06:09;;;;;;;;;;;;;;;8.02;58.77;99996.19;117401;1185;21831;-59
2022/02/17 03:08:39;;;;;;;;;;;;;;;8.01;58.67;99989.56;117355;1185;21835;-58
2022/02/17 03:11:08;;;;;;;;;;;;;;;7.99;58.84;99988.86;117350;1186;21826;-59
2022/02/17 03:13:36;;;;;;;;;;;;;;;7.98;58.68;99980.83;117399;1181;21828;-58
2022/02/17 03:16:04;;;;;;;;;;;;;;;8.00;58.59;99971.38;117375;1185;21844;-59
2022/02/17 03:18:32;;;;;;;;;;;;;;;7.96;58.54;99968.61;117239;1185;21843;-59
2022/02/17 03:21:01;;;;;;;;;;;;;;;7.98;58.78;99957.23;117353;1186;21829;-57
2022/02/17 03:23:29;;;;;;;;;;;;;;;7.95;58.85;99947.14;117350;1186;21829;-57
2022/02/17 03:25:57;;;;;;;;;;;;;;;7.92;58.75;99935.64;117390;1185;21829;-60
2022/02/17 03:28:26;;;;;;;;;;;;;;;7.90;58.71;99931.11;117420;1186;24249;-58
2022/02/17 03:30:55;;;;;;;;;;;;;;;7.87;58.71;99930.97;117419;1185;22961;-57
2022/02/17 03:33:23;;;;;;;;;;;;;;;7.89;58.56;99926.06;117382;1185;21829;-57
2022/02/17 03:35:51;;;;;;;;;;;;;;;7.88;58.86;99923.10;117404;1186;23059;-57
2022/02/17 03:38:19;;;;;;;;;;;;;;;7.82;58.73;99917.55;117468;1185;21829;-57
2022/02/17 03:40:47;;;;;;;;;;;;;;;7.79;58.71;99913.21;117370;1185;21832;-57
2022/02/17 03:43:16;;;;;;;;;;;;;;;7.78;58.70;99911.83;117350;1186;22363;-56
2022/02/17 03:45:44;;;;;;;;;;;;;;;7.82;58.57;99913.55;117367;1183;23416;-56
2022/02/17 03:48:12;;;;;;;;;;;;;;;7.81;58.53;99908.65;117405;1186;22290;-57
2022/02/17 03:50:42;;;;;;;;;;;;;;;7.79;58.41;99896.44;117468;1185;21840;-59
2022/02/17 03:53:10;;;;;;;;;;;;;;;7.78;58.57;99889.29;117444;1185;22046;-59
2022/02/17 03:55:39;;;;;;;;;;;;;;;7.71;58.57;99881.32;117425;1183;21842;-58
2022/02/17 03:58:07;;;;;;;;;;;;;;;7.64;58.51;99878.23;117379;1185;23538;-56
2022/02/17 04:00:35;;;;;;;;;;;;;;;7.61;58.55;99871.96;117387;1185;21839;-57
2022/02/17 04:03:04;;;;;;;;;;;;;;;7.58;58.56;99865.36;117417;1185;21822;-58
2022/02/17 04:05:32;;;;;;;;;;;;;;;7.55;58.64;99858.92;117360;1183;22692;-56
2022/02/17 04:08:01;;;;;;;;;;;;;;;7.55;58.59;99859.27;117436;1185;22796;-56
2022/02/17 04:10:29;;;;;;;;;;;;;;;7.54;58.69;99855.43;117353;1185;23429;-59
2022/02/17 04:13:00;;;;;;;;;;;;;;;7.52;58.58;99852.65;117368;1185;21829;-59
2022/02/17 04:15:28;;;;;;;;;;;;;;;7.51;58.76;99852.14;117395;1185;21830;-56
2022/02/17 04:17:56;;;;;;;;;;;;;;;7.49;58.84;99845.36;117321;1183;21830;-56
2022/02/17 04:20:24;;;;;;;;;;;;;;;7.48;58.87;99845.02;117361;1185;21839;-59
2022/02/17 04:22:52;;;;;;;;;;;;;;;7.48;58.83;99837.70;117379;1186;21844;-56
2022/02/17 04:25:21;;;;;;;;;;;;;;;7.45;58.90;99827.23;117404;1185;21836;-56
2022/02/17 04:27:49;;;;;;;;;;;;;;;7.42;58.79;99822.89;117409;1185;22635;-56
2022/02/17 04:30:17;;;;;;;;;;;;;;;7.41;58.89;99815.57;117325;1186;21828;-61
2022/02/17 04:32:45;;;;;;;;;;;;;;;7.40;58.83;99812.26;117345;1185;21843;-57
2022/02/17 04:35:13;;;;;;;;;;;;;;;7.37;58.85;99807.91;117358;1186;21839;-59
2022/02/17 04:37:41;;;;;;;;;;;;;;;7.35;58.85;99804.45;117447;1185;21829;-59
2022/02/17 04:40:09;;;;;;;;;;;;;;;7.34;58.89;99800.80;117410;1185;24149;-60
2022/02/17 04:42:39;;;;;;;;;;;;;;;7.34;58.89;99801.84;117407;1185;23407;-59
2022/02/17 04:45:09;;;;;;;;;;;;;;;7.34;59.11;99802.70;117293;1186;22914;-60
2022/02/17 04:47:37;;;;;;;;;;;;;;;7.33;58.60;99804.11;117354;1185;21883;-57
2022/02/17 04:50:06;;;;;;;;;;;;;;;7.32;58.85;99807.42;117411;1185;23518;-60
2022/02/17 04:52:34;;;;;;;;;;;;;;;7.33;58.96;99802.19;117450;1186;21835;-59
2022/02/17 04:55:02;;;;;;;;;;;;;;;7.35;59.10;99799.73;117310;1185;21876;-60
2022/02/17 04:57:31;;;;;;;;;;;;;;;7.34;59.31;99800.96;117332;1186;21844;-56
2022/02/17 04:59:59;;;;;;;;;;;;;;;7.34;59.06;99798.17;117374;1186;22603;-56
2022/02/17 05:02:27;;;;;;;;;;;;;;;7.35;59.17;99787.86;117433;1185;24178;-56
2022/02/17 05:04:55;;;;;;;;;;;;;;;7.36;59.01;99782.45;117360;1185;23515;-56
2022/02/17 05:07:23;;;;;;;;;;;;;;;7.39;58.97;99775.43;117370;1185;21885;-56
2022/02/17 05:09:51;;;;;;;;;;;;;;;7.40;58.76;99774.38;117362;1185;21829;-56
2022/02/17 05:12:20;;;;;;;;;;;;;;;7.39;59.10;99770.90;117339;1185;22600;-56
2022/02/17 05:14:48;;;;;;;;;;;;;;;7.39;59.23;99770.20;117319;1183;23443;-57
2022/02/17 05:17:17;;;;;;;;;;;;;;;7.43;59.35;99764.05;117389;1189;21836;-58
2022/02/17 05:19:45;;;;;;;;;;;;;;;7.44;59.12;99763.70;117407;1183;21844;-61
2022/02/17 05:22:13;;;;;;;;;;;;;;;7.46;59.36;99763.69;117349;1183;21839;-59
2022/02/17 05:24:41;;;;;;;;;;;;;;;7.48;59.27;99763.50;117242;1185;24326;-59
2022/02/17 05:27:09;;;;;;;;;;;;;;;7.51;59.28;99765.03;117401;1185;21861;-57
2022/02/17 05:29:37;;;;;;;;;;;;;;;7.54;59.22;99764.98;117415;1186;23541;-56
2022/02/17 05:32:06;;;;;;;;;;;;;;;7.56;59.08;99761.14;117395;1182;21829;-56
2022/02/17 05:34:35;;;;;;;;;;;;;;;7.60;59.44;99758.66;117395;1185;23472;-57
2022/02/17 05:37:04;;;;;;;;;;;;;;;7.62;59.49;99759.69;117368;1182;21876;-59
2022/02/17 05:39:32;;;;;;;;;;;;;;;7.66;59.49;99761.91;117416;1185;24123;-57
2022/02/17 05:42:00;;;;;;;;;;;;;;;7.71;59.44;99763.61;117423;1185;21841;-57
2022/02/17 05:44:28;;;;;;;;;;;;;;;7.76;59.36;99763.56;117377;1185;22629;-59
2022/02/17 05:46:57;;;;;;;;;;;;;;;7.81;59.35;99764.20;117432;1185;21839;-59
2022/02/17 05:49:25;;;;;;;;;;;;;;;7.87;59.50;99768.33;117400;1183;23416;-57
2022/02/17 05:51:53;;;;;;;;;;;;;;;7.96;59.31;99768.92;117371;1185;23419;-57
2022/02/17 05:54:21;;;;;;;;;;;;;;;8.03;59.33;99766.77;117272;1185;23420;-59
2022/02/17 05:56:57;;;;;;;;;;;;;;;8.10;59.54;99762.65;117419;1182;21847;-57
2022/02/17 05:59:28;;;;;;;;;;;;;;;8.15;59.37;99759.27;117379;1182;22951;-60
2022/02/17 06:01:56;;;;;;;;;;;;;;;8.19;59.39;99754.67;117387;1185;21826;-57
2022/02/17 06:04:24;;;;;;;;;;;;;;;8.23;59.32;99753.05;117415;1186;23445;-60
2022/02/17 06:06:52;;;;;;;;;;;;;;;8.25;59.36;99758.10;117331;1185;21826;-59
2022/02/17 06:09:29;;;;;;;;;;;;;;;8.26;59.34;99750.91;117310;1182;21843;-59
2022/02/17 06:11:57;;;;;;;;;;;;;;;8.29;59.51;99747.23;117423;1183;23421;-56
2022/02/17 06:14:25;;;;;;;;;;;;;;;8.32;59.61;99740.52;117355;1183;21839;-56
2022/02/17 06:16:54;;;;;;;;;;;;;;;8.36;59.57;99737.87;117405;1185;21838;-56
2022/02/17 06:19:22;;;;;;;;;;;;;;;8.40;59.57;99737.29;117413;1186;23416;-58
2022/02/17 06:21:50;;;;;;;;;;;;;;;8.44;59.46;99735.13;117387;1183;21841;-59
2022/02/17 06:24:19;;;;;;;;;;;;;;;8.47;59.54;99738.93;117363;1185;21920;-56
2022/02/17 06:26:47;;;;;;;;;;;;;;;8.50;59.57;99734.38;117315;1185;23416;-59
2022/02/17 06:29:15;;;;;;;;;;;;;;;8.49;59.81;99731.59;117402;1185;21829;-57
2022/02/17 06:31:44;;;;;;;;;;;;;;;8.53;59.85;99722.10;117416;1183;21826;-59
2022/02/17 06:34:12;;;;;;;;;;;;;;;8.61;59.51;99724.77;117521;1186;22889;-59
2022/02/17 06:36:41;;;;;;;;;;;;;;;8.64;59.73;99718.42;117363;1185;23420;-57
2022/02/17 06:39:12;;;;;;;;;;;;;;;8.66;60.05;99717.36;117402;1185;23426;-59
2022/02/17 06:41:40;;;;;;;;;;;;;;;8.69;59.83;99717.13;117425;1185;21845;-57
2022/02/17 06:44:10;;;;;;;;;;;;;;;8.75;60.01;99718.79;117437;1185;21846;-57
2022/02/17 06:46:38;;;;;;;;;;;;;;;8.81;59.94;99714.86;117364;1185;22856;-57
2022/02/17 06:49:07;;;;;;;;;;;;;;;8.88;59.95;99714.39;117373;1185;23520;-59
2022/02/17 06:51:35;;;;;;;;;;;;;;;8.96;60.04;99708.14;117328;1186;22525;-58
2022/02/17 06:54:03;;;;;;;;;;;;;;;9.02;59.88;99701.92;117439;1186;21966;-59
2022/02/17 06:56:31;;;;;;;;;;;;;;;9.10;60.02;99691.98;117328;1185;22623;-58
2022/02/17 06:58:59;;;;;;;;;;;;;;;9.21;60.03;99683.91;117381;1185;21957;-58
2022/02/17 07:01:27;;;;;;;;;;;;;;;9.25;59.96;99678.06;117409;1182;24123;-60
2022/02/17 07:03:55;;;;;;;;;;;;;;;9.33;60.02;99671.09;117338;1186;24137;-59
2022/02/17 07:06:23;;;;;;;;;;;;;;;9.40;60.12;99669.77;117320;1185;21848;-59
2022/02/17 07:08:52;;;;;;;;;;;;;;;9.50;60.02;99662.38;117326;1186;22974;-58
2022/02/17 07:11:20;;;;;;;;;;;;;;;9.60;60.03;99665.88;117407;1185;22601;-59
2022/02/17 07:13:49;;;;;;;;;;;;;;;9.69;59.94;99661.66;117374;1186;24192;-58
2022/02/17 07:16:17;;;;;;;;;;;;;;;9.79;59.97;99656.02;117310;1186;21829;-58
2022/02/17 07:18:46;;;;;;;;;;;;;;;9.90;60.00;99655.61;117390;1185;23413;-58
2022/02/17 07:21:14;;;;;;;;;;;;;;;10.00;60.01;99650.67;117368;1185;23424;-58
2022/02/17 07:23:42;;;;;;;;;;;;;;;10.11;60.13;99650.96;117389;1186;21974;-60
2022/02/17 07:26:12;;;;;;;;;;;;;;;10.20;60.07;99649.72;117441;1186;23445;-58
2022/02/17 07:28:41;;;;;;;;;;;;;;;10.28;60.13;99644.80;117384;1186;23417;-59
2022/02/17 07:31:11;;;;;;;;;;;;;;;10.38;60.28;99646.16;117384;1185;21906;-60
2022/02/17 07:33:39;;;;;;;;;;;;;;;10.48;60.16;99630.34;117371;1186;22983;-58
2022/02/17 07:36:09;;;;;;;;;;;;;;;10.59;60.06;99627.80;117305;1182;23508;-58
2022/02/17 07:38:54;;;;;;;;;;;;;;;10.74;59.94;99626.89;117347;1185;23540;-59
2022/02/17 07:41:22;;;;;;;;;;;;;;;10.86;60.13;99635.71;117347;1186;22879;-60
2022/02/17 07:43:50;;;;;;;;;;;;;;;10.95;60.01;99640.95;117377;1182;23439;-58
2022/02/17 07:46:18;;;;;;;;;;;;;;;11.03;60.00;99637.59;117393;1186;21841;-60
2022/02/17 07:48:49;;;;;;;;;;;;;;;11.10;59.95;99644.23;117417;1186;23868;-61
2022/02/17 07:51:17;;;;;;;;;;;;;;;11.16;60.22;99644.78;117374;1183;24667;-61
2022/02/17 07:53:45;;;;;;;;;;;;;;;11.25;60.07;99636.83;117407;1182;22908;-61
2022/02/17 07:56:16;;;;;;;;;;;;;;;11.40;60.19;99629.77;117378;1186;23544;-60
2022/02/17 07:58:44;;;;;;;;;;;;;;;11.52;60.23;99626.77;117338;1182;23532;-60
2022/02/17 08:01:12;;;;;;;;;;;;;;;11.57;60.36;99627.16;117289;1186;22300;-60
2022/02/17 08:03:40;;;;;;;;;;;;;;;11.67;60.30;99628.45;117359;1183;24133;-60
2022/02/17 08:06:09;;;;;;;;;;;;;;;11.83;60.61;99628.19;117443;1176;23515;-59
2022/02/17 08:08:54;;;;;;;;;;;;;;;11.96;60.34;99624.80;117295;1185;21872;-60
2022/02/17 08:11:24;;;;;;;;;;;;;;;12.04;60.41;99620.55;117324;1186;24559;-60
2022/02/17 08:13:53;;;;;;;;;;;;;;;12.12;60.40;99615.73;117370;1183;24139;-60
2022/02/17 08:16:25;;;;;;;;;;;;;;;12.21;60.45;99620.21;117382;1185;22787;-60
2022/02/17 08:18:56;;;;;;;;;;;;;;;12.29;60.51;99618.55;117338;1182;24239;-59
2022/02/17 08:21:42;;;;;;;;;;;;;;;12.41;60.42;99607.42;117391;1182;23518;-59
2022/02/17 08:24:11;;;;;;;;;;;;;;;12.51;60.35;99605.72;117447;1186;21886;-59
2022/02/17 08:26:56;;;;;;;;;;;;;;;12.61;60.47;99598.53;117343;1182;23518;-59
2022/02/17 08:29:26;;;;;;;;;;;;;;;12.71;60.43;99587.30;117327;1186;22695;-60
2022/02/17 08:31:54;;;;;;;;;;;;;;;12.81;60.36;99581.84;117335;1185;23420;-59
2022/02/17 08:34:23;;;;;;;;;;;;;;;12.96;60.46;99570.61;117372;1186;21841;-59
2022/02/17 08:36:53;;;;;;;;;;;;;;;13.11;60.41;99555.97;117334;1186;23521;-59
2022/02/17 08:39:21;;;;;;;;;;;;;;;13.24;60.30;99548.45;117334;1185;23436;-60
2022/02/17 08:41:49;;;;;;;;;;;;;;;13.36;60.12;99542.05;117888;1185;21838;-59
2022/02/17 08:44:17;;;;;;;;;;;;;;;13.50;60.33;99534.15;117986;1186;23545;-59
2022/02/17 08:46:47;;;;;;;;;;;;;;;13.65;60.28;99526.35;117379;1186;23635;-59
2022/02/17 08:49:15;;;;;;;;;;;;;;;13.78;60.27;99521.08;117486;1182;23417;-58
2022/02/17 08:51:43;;;;;;;;;;;;;;;13.87;60.10;99514.39;117328;1183;23467;-59
2022/02/17 08:54:11;;;;;;;;;;;;;;;13.98;60.15;99513.76;117356;1182;21839;-59
2022/02/17 08:56:46;;;;;;;;;;;;;;;14.10;60.06;99512.44;117377;1183;21845;-59
2022/02/17 08:59:14;;;;;;;;;;;;;;;14.16;59.93;99508.65;117414;1185;22909;-60
2022/02/17 09:01:42;;;;;;;;;;;;;;;14.20;59.83;99501.07;117395;1185;24120;-60
2022/02/17 09:04:10;;;;;;;;;;;;;;;14.27;59.74;99496.36;117550;1186;23419;-60
2022/02/17 09:06:39;;;;;;;;;;;;;;;14.41;59.60;99493.87;117379;1185;23515;-60
2022/02/17 09:09:08;;;;;;;;;;;;;;;14.50;59.64;99482.70;117373;1185;21834;-61
2022/02/17 09:11:36;;;;;;;;;;;;;;;14.61;59.61;99473.92;117290;1183;21932;-61
2022/02/17 09:14:05;;;;;;;;;;;;;;;14.73;59.39;99467.29;117356;1185;22902;-60
2022/02/17 09:16:33;;;;;;;;;;;;;;;14.82;59.33;99466.66;117422;1183;21829;-60
2022/02/17 09:19:03;;;;;;;;;;;;;;;14.96;59.32;99458.48;117429;1183;21839;-60
2022/02/17 09:21:34;;;;;;;;;;;;;;;15.03;58.93;99453.40;117423;1186;21838;-60
2022/02/17 09:24:04;;;;;;;;;;;;;;;15.09;58.92;99447.48;117403;1183;22618;-61
2022/02/17 09:26:36;;;;;;;;;;;;;;;15.17;58.74;99433.35;117473;1186;22962;-60
2022/02/17 09:29:04;;;;;;;;;;;;;;;15.22;58.70;99429.03;117342;1183;21834;-61
2022/02/17 09:31:53;;;;;;;;;;;;;;;15.34;58.86;99423.89;117253;1185;21842;-60
2022/02/17 09:34:21;;;;;;;;;;;;;;;15.44;58.64;99424.48;117367;1185;23439;-60
2022/02/17 09:36:49;;;;;;;;;;;;;;;15.47;58.35;99407.52;117335;1185;23554;-59
2022/02/17 09:39:18;;;;;;;;;;;;;;;15.51;58.27;99397.83;117382;1183;23419;-60
2022/02/17 09:41:46;;;;;;;;;;;;;;;15.59;58.37;99386.63;117424;1186;21851;-60
2022/02/17 09:44:15;;;;;;;;;;;;;;;15.72;58.48;99382.64;117508;1186;21853;-61
2022/02/17 09:46:45;;;;;;;;;;;;;;;15.81;58.39;99375.81;117303;1182;21839;-61
2022/02/17 09:49:14;;;;;;;;;;;;;;;15.89;57.71;99376.02;117403;1180;21836;-60
2022/02/17 09:51:45;;;;;;;;;;;;;;;15.87;57.77;99360.70;117321;1186;23472;-60
2022/02/17 09:54:13;;;;;;;;;;;;;;;15.89;57.85;99353.49;117438;1186;23595;-60
2022/02/17 09:56:44;;;;;;;;;;;;;;;15.98;57.84;99346.35;117384;1186;21838;-59
2022/02/17 09:59:15;;;;;;;;;;;;;;;16.05;57.75;99337.33;117340;1182;23435;-59
2022/02/17 10:01:54;;;;;;;;;;;;;;;16.10;56.94;99329.15;117397;1186;21844;-59
2022/02/17 10:04:22;;;;;;;;;;;;;;;16.19;57.35;99326.67;117414;1182;21876;-59
2022/02/17 10:06:52;;;;;;;;;;;;;;;16.28;57.09;99318.23;117434;1185;21898;-59
2022/02/17 10:09:20;;;;;;;;;;;;;;;16.36;57.20;99308.11;117434;1186;21829;-59
2022/02/17 10:11:49;;;;;;;;;;;;;;;16.49;57.60;99303.00;117462;1185;21831;-61
2022/02/17 10:14:18;;;;;;;;;;;;;;;16.58;56.96;99301.98;117424;1182;22250;-59
2022/02/17 10:16:53;;;;;;;;;;;;;;;16.62;56.82;99298.04;117310;1186;24813;-59
2022/02/17 10:19:27;;;;;;;;;;;;;;;16.69;56.20;99293.23;117354;1182;21839;-60
2022/02/17 10:22:07;;;;;;;;;;;;;;;16.74;56.70;99280.89;117522;1183;21879;-58
2022/02/17 10:24:45;;;;;;;;;;;;;;;16.84;56.60;99277.88;117443;1188;22863;-59
2022/02/17 10:27:17;;;;;;;;;;;;;;;16.92;56.71;99273.55;117354;1185;23451;-59
2022/02/17 10:30:08;;;;;;;;;;;;;;;17.03;56.88;99277.23;117374;1183;22950;-60
2022/02/17 10:32:54;;;;;;;;;;;;;;;17.10;56.40;99259.08;117336;1186;21838;-59
2022/02/17 10:35:22;;;;;;;;;;;;;;;17.17;56.33;99250.55;117345;1186;21881;-60
2022/02/17 10:37:54;;;;;;;;;;;;;;;17.19;56.28;99239.80;117388;1186;23329;-60
2022/02/17 10:40:23;;;;;;;;;;;;;;;17.27;56.43;99241.47;117379;1186;24127;-60
2022/02/17 10:42:57;;;;;;;;;;;;;;;17.31;55.99;99239.98;117301;1186;21847;-60
2022/02/17 10:45:37;;;;;;;;;;;;;;;17.33;55.90;99226.03;117403;1186;22921;-60
2022/02/17 10:48:14;;;;;;;;;;;;;;;17.39;55.51;99222.88;117373;1183;22170;-60
2022/02/17 10:50:45;;;;;;;;;;;;;;;17.50;56.15;99216.14;117384;1176;22727;-59
2022/02/17 10:53:21;;;;;;;;;;;;;;;17.63;56.04;99202.11;117327;1185;21829;-60
2022/02/17 10:56:08;;;;;;;;;;;;;;;17.76;55.89;99196.02;117342;1186;22889;-60
2022/02/17 10:58:38;;;;;;;;;;;;;;;17.85;55.17;99181.08;117352;1183;22921;-60
2022/02/17 11:01:07;;;;;;;;;;;;;;;17.87;54.63;99171.39;117478;1185;22601;-60
2022/02/17 11:03:36;;;;;;;;;;;;;;;17.88;54.66;99168.66;117300;1185;22921;-60
2022/02/17 11:06:11;;;;;;;;;;;;;;;17.85;54.89;99162.48;117355;1185;22886;-60
2022/02/17 11:08:42;;;;;;;;;;;;;;;17.78;54.62;99157.19;117343;1186;22808;-60
2022/02/17 11:11:13;;;;;;;;;;;;;;;17.69;53.63;99147.61;117425;1183;22886;-60
2022/02/17 11:13:48;;;;;;;;;;;;;;;17.69;54.02;99144.64;117372;1189;21842;-61
2022/02/17 11:16:37;;;;;;;;;;;;;;;17.82;54.02;99145.08;117375;1185;21845;-60
2022/02/17 11:19:06;;;;;;;;;;;;;;;17.89;53.16;99125.14;117336;1182;22628;-60
2022/02/17 11:21:34;;;;;;;;;;;;;;;18.03;54.58;99118.40;117345;1183;21851;-59
2022/02/17 11:24:03;;;;;;;;;;;;;;;18.22;54.48;99116.69;117430;1186;21853;-61
2022/02/17 11:26:34;;;;;;;;;;;;;;;18.37;54.64;99111.29;117379;1185;21848;-61
2022/02/17 11:29:21;;;;;;;;;;;;;;;18.48;53.99;99108.45;117299;1185;21924;-60
2022/02/17 11:32:01;;;;;;;;;;;;;;;18.57;53.84;99104.16;117414;1186;21842;-59
2022/02/17 11:34:36;;;;;;;;;;;;;;;18.63;53.63;99090.08;117428;1182;22632;-60
2022/02/17 11:37:22;;;;;;;;;;;;;;;18.66;53.76;99082.44;117398;1184;21854;-62
2022/02/17 11:39:57;;;;;;;;;;;;;;;18.71;53.90;99084.91;117329;1186;21838;-60
2022/02/17 11:42:31;;;;;;;;;;;;;;;18.71;53.79;99079.09;117433;1186;24126;-60
2022/02/17 11:45:10;;;;;;;;;;;;;;;18.75;54.32;99075.98;117316;1186;21850;-61
2022/02/17 11:47:50;;;;;;;;;;;;;;;18.79;54.44;99068.39;117364;1185;21842;-61
2022/02/17 11:50:41;;;;;;;;;;;;;;;18.84;54.51;99057.40;117368;1185;23442;-59
2022/02/17 11:53:23;;;;;;;;;;;;;;;18.92;55.00;99048.86;117144;1186;24130;-60
2022/02/17 11:55:52;;;;;;;;;;;;;;;18.97;54.80;99033.48;117339;1181;22822;-60
2022/02/17 11:58:39;;;;;;;;;;;;;;;18.97;54.86;99032.06;117360;1185;21961;-59
2022/02/17 12:01:23;;;;;;;;;;;;;;;18.99;55.12;99024.64;117286;1183;22959;-59
2022/02/17 12:03:57;;;;;;;;;;;;;;;19.06;55.40;99026.47;117378;1186;21886;-60
2022/02/17 12:06:56;;;;;;;;;;;;;;;19.11;55.51;99023.79;117317;1185;22241;-60
2022/02/17 12:09:28;;;;;;;;;;;;;;;19.20;55.24;99020.20;117417;1183;22982;-60
2022/02/17 12:12:19;;;;;;;;;;;;;;;19.23;55.30;99014.23;117362;1182;23550;-60
2022/02/17 12:14:51;;;;;;;;;;;;;;;19.21;55.13;99008.34;117380;1185;23439;-60
2022/02/17 12:17:27;;;;;;;;;;;;;;;19.10;54.88;99017.12;118521;1185;22789;-59
2022/02/17 12:20:15;;;;;;;;;;;;;;;18.91;54.78;99009.48;118635;1183;23589;-60
2022/02/17 12:22:56;;;;;;;;;;;;;;;18.67;54.74;99006.33;117281;1185;21929;-59
2022/02/17 12:25:28;;;;;;;;;;;;;;;18.49;54.62;99006.99;117404;1182;23521;-59
2022/02/17 12:28:05;;;;;;;;;;;;;;;18.40;54.90;98996.54;117402;1185;21844;-59
2022/02/17 12:30:33;;;;;;;;;;;;;;;18.43;55.08;98989.60;117337;1182;23416;-59
2022/02/17 12:33:03;;;;;;;;;;;;;;;18.52;55.19;98988.11;117360;1185;21841;-59
2022/02/17 12:35:31;;;;;;;;;;;;;;;18.63;54.93;98992.74;117434;1184;21842;-59
2022/02/17 12:38:19;;;;;;;;;;;;;;;18.77;54.78;98974.19;117420;1183;21871;-59
2022/02/17 12:40:47;;;;;;;;;;;;;;;19.10;54.91;98983.50;117378;1185;22779;-59
2022/02/17 12:43:28;;;;;;;;;;;;;;;19.35;54.44;98975.89;117429;1186;21839;-60
2022/02/17 12:46:00;;;;;;;;;;;;;;;19.42;53.98;98969.73;117455;1182;22970;-59
2022/02/17 12:48:29;;;;;;;;;;;;;;;19.40;53.86;98969.66;117374;1186;21830;-59
2022/02/17 12:51:24;;;;;;;;;;;;;;;19.37;54.02;98967.41;117249;1186;21875;-59
2022/02/17 12:53:54;;;;;;;;;;;;;;;19.29;52.98;98966.19;117384;1182;21838;-60
2022/02/17 12:56:29;;;;;;;;;;;;;;;19.26;53.02;98958.02;117390;1182;23446;-59